createdAt,value
2019-03-26T00:01:42.708Z,102798.41
2019-03-26T00:04:12.420Z,102799.16
2019-03-26T00:06:42.158Z,102801.92
2019-03-26T00:09:11.922Z,102797.66
2019-03-26T00:11:41.619Z,102807.40
2019-03-26T00:14:11.397Z,102797.13
2019-03-26T00:16:41.089Z,102799.09
2019-03-26T00:19:10.843Z,102802.39
2019-03-26T00:21:40.476Z,102800.91
2019-03-26T00:24:10.169Z,102802.78
2019-03-26T00:26:39.840Z,102806.27
2019-03-26T00:29:09.655Z,102805.99
2019-03-26T00:31:39.283Z,102798.96
2019-03-26T00:34:18.698Z,102801.12
2019-03-26T00:36:40.364Z,102797.32
2019-03-26T00:39:10.704Z,102802.73
2019-03-26T00:41:40.384Z,102804.38
2019-03-26T00:44:10.219Z,102817.75
2019-03-26T00:46:39.874Z,102810.95
2019-03-26T00:49:09.585Z,102816.56
2019-03-26T00:51:39.285Z,102816.81
2019-03-26T00:54:09.029Z,102817.31
2019-03-26T00:56:38.728Z,102817.92
2019-03-26T00:59:08.457Z,102812.38
2019-03-26T01:01:38.159Z,102813.73
2019-03-26T01:04:07.911Z,102805.25
2019-03-26T01:06:37.727Z,102811.19
2019-03-26T01:09:08.275Z,102816.06
2019-03-26T01:11:38.575Z,102812.41
2019-03-26T01:14:08.338Z,102810.84
2019-03-26T01:16:37.996Z,102806.33
2019-03-26T01:19:07.700Z,102810.20
2019-03-26T01:21:37.568Z,102812.20
2019-03-26T01:24:07.293Z,102819.41
2019-03-26T01:26:36.989Z,102823.77
2019-03-26T01:29:06.661Z,102825.67
2019-03-26T01:31:36.399Z,102822.52
2019-03-26T01:34:06.138Z,102817.94
2019-03-26T01:36:35.799Z,102822.59
2019-03-26T01:39:07.560Z,102825.78
2019-03-26T01:41:37.271Z,102828.33
2019-03-26T01:44:07.049Z,102823.13
2019-03-26T01:46:36.746Z,102819.47
2019-03-26T01:49:06.401Z,102820.02
2019-03-26T01:51:36.256Z,102820.88
2019-03-26T01:54:05.955Z,102819.80
2019-03-26T01:56:35.610Z,102823.59
2019-03-26T01:59:05.365Z,102822.23
2019-03-26T02:01:35.105Z,102818.93
2019-03-26T02:04:04.777Z,102819.96
2019-03-26T02:06:34.420Z,102814.88
2019-03-26T02:09:05.463Z,102827.20
2019-03-26T02:11:35.429Z,102826.22
2019-03-26T02:14:05.305Z,102823.01
2019-03-26T02:16:34.970Z,102834.00
2019-03-26T02:19:04.756Z,102835.55
2019-03-26T02:21:34.558Z,102829.23
2019-03-26T02:24:04.524Z,102830.67
2019-03-26T02:26:34.320Z,102822.08
2019-03-26T02:29:04.146Z,102821.77
2019-03-26T02:31:33.812Z,102827.38
2019-03-26T02:34:03.519Z,102827.45
2019-03-26T02:36:33.167Z,102830.19
2019-03-26T02:39:02.917Z,102827.35
2019-03-26T02:41:32.569Z,102827.53
2019-03-26T02:44:02.281Z,102820.47
2019-03-26T02:46:31.998Z,102821.98
2019-03-26T02:49:01.640Z,102818.36
2019-03-26T02:51:31.332Z,102815.14
2019-03-26T02:54:01.063Z,102814.60
2019-03-26T02:56:30.876Z,102820.22
2019-03-26T02:59:00.549Z,102819.22
2019-03-26T03:01:30.452Z,102819.87
2019-03-26T03:04:00.192Z,102815.64
2019-03-26T03:06:29.867Z,102821.02
2019-03-26T03:08:59.502Z,102817.94
2019-03-26T03:11:29.214Z,102814.42
2019-03-26T03:13:58.855Z,102816.93
2019-03-26T03:16:28.534Z,102821.23
2019-03-26T03:18:58.554Z,102815.24
2019-03-26T03:21:28.309Z,102820.08
2019-03-26T03:23:58.035Z,102819.61
2019-03-26T03:26:27.716Z,102819.75
2019-03-26T03:28:57.368Z,102827.75
2019-03-26T03:31:27.066Z,102818.42
2019-03-26T03:33:56.796Z,102830.96
2019-03-26T03:36:26.606Z,102830.22
2019-03-26T03:38:56.353Z,102827.28
2019-03-26T03:41:26.062Z,102824.20
2019-03-26T03:43:55.707Z,102826.74
2019-03-26T03:46:25.720Z,102831.54
2019-03-26T03:48:55.783Z,102826.59
2019-03-26T03:51:28.582Z,102825.16
2019-03-26T03:53:59.650Z,102827.73
2019-03-26T03:56:31.651Z,102822.72
2019-03-26T03:59:03.648Z,102830.27
2019-03-26T04:01:33.375Z,102834.36
2019-03-26T04:04:03.095Z,102834.64
2019-03-26T04:06:32.745Z,102834.64
2019-03-26T04:09:02.918Z,102829.13
2019-03-26T04:11:32.713Z,102829.81
2019-03-26T04:14:02.380Z,102837.91
2019-03-26T04:16:32.114Z,102832.81
2019-03-26T04:19:01.873Z,102833.21
2019-03-26T04:21:31.607Z,102828.86
2019-03-26T04:24:01.536Z,102821.27
2019-03-26T04:26:31.257Z,102827.88
2019-03-26T04:29:00.951Z,102829.68
2019-03-26T04:31:30.703Z,102826.74
2019-03-26T04:34:00.397Z,102825.66
2019-03-26T04:36:30.153Z,102830.53
2019-03-26T04:38:59.836Z,102833.40
2019-03-26T04:41:29.645Z,102829.36
2019-03-26T04:43:59.283Z,102831.00
2019-03-26T04:46:29.018Z,102837.05
2019-03-26T04:48:58.704Z,102837.27
2019-03-26T04:51:28.430Z,102839.30
2019-03-26T04:53:58.093Z,102828.67
2019-03-26T04:56:27.806Z,102830.11
2019-03-26T04:58:57.493Z,102833.69
2019-03-26T05:01:27.261Z,102832.33
2019-03-26T05:03:57.039Z,102835.98
2019-03-26T05:06:37.411Z,102831.36
2019-03-26T05:08:58.179Z,102831.47
2019-03-26T05:11:27.837Z,102823.66
2019-03-26T05:13:57.835Z,102829.92
2019-03-26T05:16:27.547Z,102827.56
2019-03-26T05:18:57.287Z,102822.69
2019-03-26T05:21:26.925Z,102822.05
2019-03-26T05:23:56.746Z,102813.92
2019-03-26T05:26:26.425Z,102815.92
2019-03-26T05:28:56.317Z,102816.56
2019-03-26T05:31:28.072Z,102820.37
2019-03-26T05:33:57.825Z,102827.53
2019-03-26T05:36:27.759Z,102835.23
2019-03-26T05:38:57.659Z,102837.42
2019-03-26T05:41:27.429Z,102838.78
2019-03-26T05:43:57.517Z,102832.94
2019-03-26T05:46:27.254Z,102838.38
2019-03-26T05:48:58.046Z,102833.84
2019-03-26T05:51:27.776Z,102836.20
2019-03-26T05:53:57.568Z,102841.86
2019-03-26T05:56:30.414Z,102835.27
2019-03-26T05:58:58.642Z,102843.07
2019-03-26T06:01:28.369Z,102848.05
2019-03-26T06:03:58.100Z,102843.72
2019-03-26T06:06:27.889Z,102842.91
2019-03-26T06:08:57.550Z,102843.08
2019-03-26T06:11:27.295Z,102844.12
2019-03-26T06:13:57.138Z,102847.52
2019-03-26T06:16:37.856Z,102848.29
2019-03-26T06:18:58.224Z,102847.36
2019-03-26T06:21:27.926Z,102846.19
2019-03-26T06:24:03.195Z,102850.56
2019-03-26T06:26:32.935Z,102857.69
2019-03-26T06:29:02.568Z,102864.93
2019-03-26T06:31:32.542Z,102871.31
2019-03-26T06:34:02.284Z,102871.84
2019-03-26T06:36:31.980Z,102873.64
2019-03-26T06:39:03.391Z,102874.64
2019-03-26T06:41:33.266Z,102869.23
2019-03-26T06:44:02.914Z,102870.42
2019-03-26T06:46:32.646Z,102872.25
2019-03-26T06:49:02.320Z,102874.86
2019-03-26T06:51:32.147Z,102875.66
2019-03-26T06:54:01.811Z,102879.91
2019-03-26T06:57:18.437Z,102877.77
2019-03-26T06:59:48.071Z,102882.78
2019-03-26T07:02:18.003Z,102880.81
2019-03-26T07:04:50.788Z,102878.88
2019-03-26T07:07:30.917Z,102888.16
2019-03-26T07:09:52.126Z,102885.40
2019-03-26T07:12:21.790Z,102889.05
2019-03-26T07:14:51.635Z,102893.20
2019-03-26T07:17:21.327Z,102901.45
2019-03-26T07:19:51.096Z,102903.56
2019-03-26T07:22:20.843Z,102901.72
2019-03-26T07:24:50.781Z,102909.21
2019-03-26T07:27:20.719Z,102909.38
2019-03-26T07:29:50.631Z,102916.58
2019-03-26T07:32:20.366Z,102918.90
2019-03-26T07:34:50.239Z,102920.78
2019-03-26T07:37:20.038Z,102919.89
2019-03-26T07:39:49.703Z,102923.05
2019-03-26T07:42:19.443Z,102923.77
2019-03-26T07:47:09.493Z,102919.13
2019-03-26T07:49:39.211Z,102916.25
2019-03-26T07:52:08.900Z,102914.27
2019-03-26T07:54:38.720Z,102915.64
2019-03-26T07:57:08.462Z,102913.25
2019-03-26T07:59:38.118Z,102906.39
2019-03-26T08:02:07.875Z,102898.91
2019-03-26T08:04:37.559Z,102908.97
2019-03-26T08:07:07.320Z,102910.36
2019-03-26T08:09:37.019Z,102911.88
2019-03-26T08:12:07.142Z,102907.01
2019-03-26T08:14:36.934Z,102918.27
2019-03-26T08:17:06.602Z,102916.73
2019-03-26T08:19:36.263Z,102920.88
2019-03-26T08:22:05.948Z,102921.90
2019-03-26T08:24:35.651Z,102911.95
2019-03-26T08:27:05.392Z,102915.41
2019-03-26T08:29:35.105Z,102908.03
2019-03-26T08:32:04.932Z,102908.89
2019-03-26T08:34:34.735Z,102910.38
2019-03-26T08:37:04.437Z,102906.30
2019-03-26T08:39:34.119Z,102907.58
2019-03-26T08:42:03.974Z,102907.56
2019-03-26T08:44:33.640Z,102907.10
2019-03-26T08:47:03.302Z,102919.88
2019-03-26T08:49:33.019Z,102912.73
2019-03-26T08:52:02.789Z,102916.81
2019-03-26T08:54:32.623Z,102916.00
2019-03-26T08:57:02.306Z,102921.20
2019-03-26T08:59:32.014Z,102920.32
2019-03-26T09:02:01.838Z,102913.03
2019-03-26T09:04:31.484Z,102906.25
2019-03-26T09:07:02.381Z,102907.87
2019-03-26T09:09:32.058Z,102911.27
2019-03-26T09:12:01.839Z,102905.07
2019-03-26T09:14:38.575Z,102912.06
2019-03-26T09:17:08.335Z,102914.03
2019-03-26T09:19:38.106Z,102914.92
2019-03-26T09:22:07.864Z,102916.94
2019-03-26T09:24:38.033Z,102916.98
2019-03-26T09:27:07.805Z,102918.05
2019-03-26T09:29:37.514Z,102924.55
2019-03-26T09:32:07.270Z,102920.30
2019-03-26T09:34:36.963Z,102937.99
2019-03-26T09:37:06.665Z,102935.85
2019-03-26T09:39:38.320Z,102930.61
2019-03-26T09:42:08.300Z,102932.06
2019-03-26T09:44:37.997Z,102938.33
2019-03-26T09:47:16.025Z,102940.50
2019-03-26T09:49:39.096Z,102939.05
2019-03-26T09:52:08.811Z,102947.15
2019-03-26T09:54:38.501Z,102961.80
2019-03-26T09:57:08.191Z,102963.39
2019-03-26T09:59:37.853Z,102966.64
2019-03-26T10:02:07.850Z,102963.25
2019-03-26T10:04:37.755Z,102958.84
2019-03-26T10:07:20.566Z,102957.53
2019-03-26T10:09:39.122Z,102944.68
2019-03-26T10:12:08.856Z,102943.17
2019-03-26T10:14:38.613Z,102953.08
2019-03-26T10:17:08.321Z,102942.82
2019-03-26T10:19:37.979Z,102936.93
2019-03-26T10:22:07.858Z,102932.26
2019-03-26T10:24:37.820Z,102929.73
2019-03-26T10:27:07.680Z,102924.71
2019-03-26T10:29:37.504Z,102922.77
2019-03-26T10:32:07.378Z,102921.98
2019-03-26T10:34:37.011Z,102921.63
2019-03-26T10:37:06.848Z,102920.86
2019-03-26T10:39:36.696Z,102925.34
2019-03-26T10:42:07.987Z,102922.08
2019-03-26T10:44:37.697Z,102915.41
2019-03-26T10:47:07.384Z,102912.69
2019-03-26T10:49:37.108Z,102910.33
2019-03-26T10:52:06.811Z,102907.94
2019-03-26T10:54:36.573Z,102904.10
2019-03-26T10:57:06.907Z,102904.78
2019-03-26T10:59:36.571Z,102914.33
2019-03-26T11:02:06.579Z,102917.67
2019-03-26T11:04:36.354Z,102906.94
2019-03-26T11:07:06.320Z,102912.09
2019-03-26T11:09:36.107Z,102904.65
2019-03-26T11:12:06.015Z,102897.41
2019-03-26T11:14:35.824Z,102899.23
2019-03-26T11:17:05.633Z,102895.38
2019-03-26T11:19:35.368Z,102892.16
2019-03-26T11:22:05.178Z,102881.73
2019-03-26T11:24:35.069Z,102886.80
2019-03-26T11:27:04.864Z,102883.92
2019-03-26T11:29:34.713Z,102880.16
2019-03-26T11:32:04.425Z,102877.85
2019-03-26T11:34:34.129Z,102877.85
2019-03-26T11:37:03.936Z,102882.27
2019-03-26T11:39:33.715Z,102878.13
2019-03-26T11:42:03.598Z,102871.59
2019-03-26T11:44:33.366Z,102869.21
2019-03-26T11:47:03.370Z,102870.74
2019-03-26T11:49:33.124Z,102881.32
2019-03-26T11:52:03.167Z,102882.48
2019-03-26T11:54:33.003Z,102889.98
2019-03-26T11:57:02.675Z,102880.48
2019-03-26T11:59:32.407Z,102867.43
2019-03-26T12:02:02.192Z,102871.11
2019-03-26T12:04:31.921Z,102869.03
2019-03-26T12:07:01.687Z,102871.19
2019-03-26T12:09:31.501Z,102863.80
2019-03-26T12:12:01.213Z,102863.84
2019-03-26T12:14:30.893Z,102863.58
2019-03-26T12:17:00.871Z,102869.28
2019-03-26T12:19:30.542Z,102870.37
2019-03-26T12:22:00.262Z,102871.16
2019-03-26T12:24:30.104Z,102870.26
2019-03-26T12:26:59.908Z,102872.98
2019-03-26T12:29:29.630Z,102875.23
2019-03-26T12:31:59.427Z,102874.25
2019-03-26T12:34:29.295Z,102869.43
2019-03-26T12:36:58.950Z,102872.87
2019-03-26T12:39:29.223Z,102873.09
2019-03-26T12:41:58.897Z,102879.73
2019-03-26T12:44:28.617Z,102873.31
2019-03-26T12:46:58.623Z,102877.25
2019-03-26T12:49:28.538Z,102882.74
2019-03-26T12:51:58.197Z,102873.71
2019-03-26T12:54:28.012Z,102872.27
2019-03-26T12:56:57.800Z,102860.73
2019-03-26T12:59:27.524Z,102860.44
2019-03-26T13:01:57.227Z,102865.99
2019-03-26T13:04:27.032Z,102861.59
2019-03-26T13:06:56.812Z,102864.91
2019-03-26T13:09:26.480Z,102859.11
2019-03-26T13:11:56.299Z,102860.72
2019-03-26T13:14:26.112Z,102850.45
2019-03-26T13:16:55.944Z,102859.80
2019-03-26T13:19:25.597Z,102852.80
2019-03-26T13:21:55.423Z,102847.33
2019-03-26T13:24:25.159Z,102846.96
2019-03-26T13:26:54.951Z,102852.03
2019-03-26T13:29:24.595Z,102850.27
2019-03-26T13:31:54.268Z,102843.49
2019-03-26T13:34:24.050Z,102841.81
2019-03-26T13:36:53.802Z,102849.09
2019-03-26T13:39:23.533Z,102843.67
2019-03-26T13:41:53.417Z,102838.78
2019-03-26T13:44:23.108Z,102840.88
2019-03-26T13:46:52.850Z,102840.13
2019-03-26T13:49:22.553Z,102840.17
2019-03-26T13:51:52.248Z,102835.34
2019-03-26T13:54:22.033Z,102830.83
2019-03-26T13:56:51.731Z,102834.19
2019-03-26T13:59:21.499Z,102838.73
2019-03-26T14:01:51.241Z,102843.69
2019-03-26T14:04:21.088Z,102838.44
2019-03-26T14:06:52.710Z,102838.44
2019-03-26T14:09:23.107Z,102830.58
2019-03-26T14:11:52.936Z,102835.53
2019-03-26T14:14:22.590Z,102828.88
2019-03-26T14:16:52.325Z,102831.94
2019-03-26T14:19:22.065Z,102832.20
2019-03-26T14:21:51.819Z,102830.97
2019-03-26T14:24:21.510Z,102839.77
2019-03-26T14:26:51.227Z,102829.44
2019-03-26T14:29:24.478Z,102826.87
2019-03-26T14:31:52.658Z,102831.72
2019-03-26T14:34:22.459Z,102833.33
2019-03-26T14:36:52.282Z,102832.20
2019-03-26T14:39:22.057Z,102829.38
2019-03-26T14:41:52.022Z,102831.41
2019-03-26T14:44:22.042Z,102826.36
2019-03-26T14:46:51.694Z,102832.91
2019-03-26T14:49:21.401Z,102832.27
2019-03-26T14:51:51.077Z,102836.37
2019-03-26T14:54:20.890Z,102841.95
2019-03-26T14:56:50.645Z,102829.52
2019-03-26T14:59:20.380Z,102829.25
2019-03-26T15:01:50.033Z,102826.49
2019-03-26T15:04:19.764Z,102828.69
2019-03-26T15:06:49.585Z,102817.50
2019-03-26T15:09:19.270Z,102824.27
2019-03-26T15:11:49.047Z,102823.11
2019-03-26T15:14:18.759Z,102824.98
2019-03-26T15:16:48.581Z,102824.57
2019-03-26T15:19:18.282Z,102818.15
2019-03-26T15:21:48.050Z,102819.56
2019-03-26T15:24:17.824Z,102811.75
2019-03-26T15:26:47.606Z,102810.46
2019-03-26T15:29:17.312Z,102809.25
2019-03-26T15:31:47.160Z,102811.79
2019-03-26T15:34:16.819Z,102813.98
2019-03-26T15:36:46.839Z,102807.22
2019-03-26T15:39:16.536Z,102815.22
2019-03-26T15:41:46.371Z,102811.34
2019-03-26T15:44:16.524Z,102806.75
2019-03-26T15:46:46.190Z,102809.06
2019-03-26T15:49:15.859Z,102802.64
2019-03-26T15:51:45.610Z,102811.17
2019-03-26T15:54:15.319Z,102811.26
2019-03-26T15:56:45.030Z,102809.30
2019-03-26T15:59:14.823Z,102810.15
2019-03-26T16:01:44.568Z,102808.70
2019-03-26T16:04:14.272Z,102810.28
2019-03-26T16:06:43.996Z,102806.03
2019-03-26T16:09:13.887Z,102804.08
2019-03-26T16:11:43.659Z,102806.13
2019-03-26T16:14:13.473Z,102809.06
2019-03-26T16:16:43.415Z,102805.50
2019-03-26T16:19:13.144Z,102793.66
2019-03-26T16:21:43.045Z,102803.71
2019-03-26T16:24:13.024Z,102795.38
2019-03-26T16:26:42.845Z,102799.09
2019-03-26T16:29:12.549Z,102795.51
2019-03-26T16:31:42.349Z,102798.39
2019-03-26T16:34:12.148Z,102801.10
2019-03-26T16:36:41.912Z,102800.70
2019-03-26T16:39:11.568Z,102802.45
2019-03-26T16:41:49.003Z,102811.32
2019-03-26T16:44:12.651Z,102815.44
2019-03-26T16:46:42.414Z,102819.45
2019-03-26T16:49:12.142Z,102822.03
2019-03-26T16:51:41.917Z,102823.34
2019-03-26T16:54:11.684Z,102823.59
2019-03-26T16:56:41.494Z,102820.32
2019-03-26T16:59:11.217Z,102828.75
2019-03-26T17:01:40.905Z,102815.69
2019-03-26T17:04:10.687Z,102820.02
2019-03-26T17:06:40.430Z,102823.67
2019-03-26T17:09:10.258Z,102816.66
2019-03-26T17:11:40.012Z,102817.56
2019-03-26T17:14:09.897Z,102816.77
2019-03-26T17:16:39.709Z,102809.31
2019-03-26T17:19:09.476Z,102820.22
2019-03-26T17:21:39.240Z,102818.48
2019-03-26T17:24:09.117Z,102817.02
2019-03-26T17:26:38.829Z,102816.35
2019-03-26T17:29:08.654Z,102816.79
2019-03-26T17:31:38.508Z,102812.78
2019-03-26T17:34:08.235Z,102816.33
2019-03-26T17:36:38.069Z,102815.46
2019-03-26T17:39:09.766Z,102818.70
2019-03-26T17:41:39.525Z,102816.35
2019-03-26T17:44:09.239Z,102808.84
2019-03-26T17:46:38.948Z,102815.41
2019-03-26T17:49:08.698Z,102816.23
2019-03-26T17:51:40.788Z,102811.34
2019-03-26T17:54:09.983Z,102807.20
2019-03-26T17:56:39.689Z,102810.69
2019-03-26T17:59:09.443Z,102815.31
2019-03-26T18:01:39.477Z,102811.59
2019-03-26T18:04:09.404Z,102811.01
2019-03-26T18:06:39.100Z,102815.88
2019-03-26T18:09:09.227Z,102819.50
2019-03-26T18:11:39.033Z,102815.45
2019-03-26T18:14:08.874Z,102824.45
2019-03-26T18:16:38.717Z,102823.98
2019-03-26T18:19:08.820Z,102823.15
2019-03-26T18:21:50.800Z,102821.67
2019-03-26T18:24:10.268Z,102829.25
2019-03-26T18:26:40.159Z,102835.50
2019-03-26T18:29:10.020Z,102839.22
2019-03-26T18:31:39.819Z,102833.30
2019-03-26T18:34:09.621Z,102838.57
2019-03-26T18:36:39.282Z,102837.52
2019-03-26T18:39:09.922Z,102840.91
2019-03-26T18:41:39.828Z,102834.41
2019-03-26T18:44:09.743Z,102836.91
2019-03-26T18:46:39.488Z,102842.97
2019-03-26T18:49:09.133Z,102842.38
2019-03-26T18:51:39.208Z,102845.72
2019-03-26T18:54:08.850Z,102854.22
2019-03-26T18:56:38.627Z,102854.52
2019-03-26T18:59:08.333Z,102855.77
2019-03-26T19:01:38.033Z,102855.41
2019-03-26T19:04:07.685Z,102848.30
2019-03-26T19:06:37.606Z,102850.59
2019-03-26T19:09:08.051Z,102853.20
2019-03-26T19:11:37.736Z,102853.11
2019-03-26T19:14:07.436Z,102854.86
2019-03-26T19:16:37.286Z,102867.46
2019-03-26T19:19:07.104Z,102857.19
2019-03-26T19:21:36.726Z,102857.92
2019-03-26T19:24:06.602Z,102860.50
2019-03-26T19:26:36.269Z,102858.58
2019-03-26T19:29:06.035Z,102863.61
2019-03-26T19:31:35.899Z,102865.73
2019-03-26T19:34:05.822Z,102871.73
2019-03-26T19:36:35.551Z,102865.86
2019-03-26T19:39:08.373Z,102872.82
2019-03-26T19:41:38.226Z,102874.76
2019-03-26T19:44:08.093Z,102882.67
2019-03-26T19:46:37.867Z,102879.94
2019-03-26T19:49:08.269Z,102883.70
2019-03-26T19:51:38.080Z,102894.57
2019-03-26T19:54:07.743Z,102899.89
2019-03-26T19:56:37.575Z,102901.00
2019-03-26T19:59:07.631Z,102909.88
2019-03-26T20:01:37.313Z,102911.41
2019-03-26T20:04:07.020Z,102912.73
2019-03-26T20:06:36.738Z,102917.86
2019-03-26T20:09:08.424Z,102910.98
2019-03-26T20:11:38.201Z,102911.35
2019-03-26T20:14:07.886Z,102904.39
2019-03-26T20:16:41.961Z,102913.78
2019-03-26T20:19:09.084Z,102916.89
2019-03-26T20:21:38.841Z,102914.52
2019-03-26T20:24:08.605Z,102917.85
2019-03-26T20:26:38.483Z,102915.79
2019-03-26T20:29:08.264Z,102911.88
2019-03-26T20:31:38.001Z,102909.50
2019-03-26T20:34:07.763Z,102909.06
2019-03-26T20:36:37.458Z,102910.83
2019-03-26T20:39:09.264Z,102917.03
2019-03-26T20:41:38.904Z,102906.39
2019-03-26T20:44:08.691Z,102910.39
2019-03-26T20:46:38.405Z,102914.97
2019-03-26T20:49:08.194Z,102922.52
2019-03-26T20:51:37.906Z,102916.30
2019-03-26T20:54:07.592Z,102919.23
2019-03-26T20:56:37.377Z,102915.20
2019-03-26T20:59:07.560Z,102917.91
2019-03-26T21:01:37.302Z,102915.70
2019-03-26T21:04:07.230Z,102913.77
2019-03-26T21:06:36.960Z,102914.45
2019-03-26T21:09:08.006Z,102912.30
2019-03-26T21:11:37.916Z,102918.06
2019-03-26T21:14:07.663Z,102924.35
2019-03-26T21:16:37.304Z,102921.77
2019-03-26T21:19:07.348Z,102922.86
2019-03-26T21:21:37.070Z,102929.73
2019-03-26T21:24:06.725Z,102926.50
2019-03-26T21:26:36.515Z,102928.72
2019-03-26T21:29:06.417Z,102923.89
2019-03-26T21:31:36.125Z,102933.28
2019-03-26T21:34:05.878Z,102930.98
2019-03-26T21:36:35.688Z,102927.67
2019-03-26T21:39:06.931Z,102925.31
2019-03-26T21:41:36.972Z,102926.34
2019-03-26T21:44:06.670Z,102929.16
2019-03-26T21:46:36.474Z,102933.28
2019-03-26T21:49:06.284Z,102923.74
2019-03-26T21:51:35.946Z,102938.53
2019-03-26T21:54:05.887Z,102939.17
2019-03-26T21:56:35.701Z,102943.02
2019-03-26T21:59:05.544Z,102942.89
2019-03-26T22:01:35.320Z,102945.02
2019-03-26T22:04:05.035Z,102945.92
2019-03-26T22:06:34.736Z,102940.97
2019-03-26T22:09:06.316Z,102945.55
2019-03-26T22:11:48.825Z,102942.20
2019-03-26T22:14:17.375Z,102944.38
2019-03-26T22:16:38.993Z,102945.91
2019-03-26T22:19:08.641Z,102943.00
2019-03-26T22:21:38.331Z,102946.64
2019-03-26T22:24:08.036Z,102946.70
2019-03-26T22:26:37.791Z,102946.33
2019-03-26T22:29:07.506Z,102944.18
2019-03-26T22:31:37.297Z,102934.50
2019-03-26T22:34:07.053Z,102937.56
2019-03-26T22:36:36.736Z,102937.06
2019-03-26T22:39:08.021Z,102932.50
2019-03-26T22:41:37.811Z,102934.65
2019-03-26T22:44:07.525Z,102936.20
2019-03-26T22:46:37.639Z,102938.92
2019-03-26T22:49:07.325Z,102937.05
2019-03-26T22:51:37.138Z,102937.31
2019-03-26T22:54:06.808Z,102939.97
2019-03-26T22:56:36.624Z,102933.96
2019-03-26T22:59:06.382Z,102939.66
2019-03-26T23:01:36.460Z,102931.31
2019-03-26T23:04:06.297Z,102934.53
2019-03-26T23:06:36.262Z,102933.33
2019-03-26T23:09:07.249Z,102940.91
2019-03-26T23:11:37.192Z,102931.11
2019-03-26T23:14:07.137Z,102935.98
2019-03-26T23:16:37.179Z,102929.82
2019-03-26T23:19:07.153Z,102938.03
2019-03-26T23:21:37.071Z,102936.27
2019-03-26T23:24:07.045Z,102932.78
2019-03-26T23:26:36.749Z,102934.81
2019-03-26T23:29:08.142Z,102939.74
2019-03-26T23:31:38.107Z,102940.37
2019-03-26T23:34:07.783Z,102947.23
2019-03-26T23:36:37.477Z,102942.80
2019-03-26T23:39:08.157Z,102945.68
2019-03-26T23:41:39.711Z,102941.86
2019-03-26T23:44:09.304Z,102943.67
2019-03-26T23:46:39.015Z,102943.51
2019-03-26T23:49:08.765Z,102946.16
2019-03-26T23:51:38.528Z,102949.04
2019-03-26T23:54:08.244Z,102946.38
2019-03-26T23:56:37.955Z,102946.00
2019-03-26T23:59:07.694Z,102936.16
